createdAt,value
2018-09-03T00:01:40.568Z,99.90
2018-09-03T00:04:08.126Z,99.90
2018-09-03T00:06:35.640Z,99.90
2018-09-03T00:09:04.146Z,99.90
2018-09-03T00:11:31.666Z,99.90
2018-09-03T00:13:59.202Z,99.90
2018-09-03T00:16:26.751Z,99.90
2018-09-03T00:18:54.343Z,99.90
2018-09-03T00:21:21.896Z,99.90
2018-09-03T00:23:49.409Z,99.90
2018-09-03T00:26:16.933Z,99.90
2018-09-03T00:28:44.453Z,99.90
2018-09-03T00:31:17.702Z,99.90
2018-09-03T00:34:53.588Z,99.90
2018-09-03T00:37:26.763Z,99.90
2018-09-03T00:39:59.922Z,99.90
2018-09-03T00:42:33.271Z,99.90
2018-09-03T00:45:06.480Z,99.90
2018-09-03T00:47:34.021Z,99.90
2018-09-03T00:50:01.606Z,99.90
2018-09-03T00:52:29.166Z,99.90
2018-09-03T00:54:56.790Z,99.90
2018-09-03T00:57:24.333Z,99.90
2018-09-03T00:59:51.867Z,99.90
2018-09-03T01:02:19.393Z,99.90
2018-09-03T01:04:46.927Z,99.90
2018-09-03T01:07:14.497Z,99.90
2018-09-03T01:09:41.995Z,99.90
2018-09-03T01:12:09.610Z,99.90
2018-09-03T01:14:37.142Z,99.90
2018-09-03T01:17:04.737Z,99.90
2018-09-03T01:19:32.279Z,99.90
2018-09-03T01:21:59.853Z,99.90
2018-09-03T01:24:27.369Z,99.90
2018-09-03T01:26:54.898Z,99.90
2018-09-03T01:29:22.435Z,99.90
2018-09-03T01:31:54.100Z,99.90
2018-09-03T01:34:22.465Z,99.90
2018-09-03T01:36:50.069Z,99.90
2018-09-03T01:39:17.604Z,99.90
2018-09-03T01:41:45.162Z,99.90
2018-09-03T01:44:12.700Z,99.90
2018-09-03T01:46:40.269Z,99.90
2018-09-03T01:49:07.828Z,99.90
2018-09-03T01:51:35.346Z,99.90
2018-09-03T01:54:02.907Z,99.90
2018-09-03T01:56:30.426Z,99.90
2018-09-03T01:58:57.966Z,99.90
2018-09-03T02:01:25.502Z,99.90
2018-09-03T02:03:53.026Z,99.90
2018-09-03T02:06:20.594Z,99.90
2018-09-03T02:08:48.103Z,99.90
2018-09-03T02:11:15.759Z,99.90
2018-09-03T02:13:43.366Z,99.90
2018-09-03T02:16:10.960Z,99.90
2018-09-03T02:18:39.004Z,99.90
2018-09-03T02:21:06.844Z,99.90
2018-09-03T02:23:34.406Z,99.90
2018-09-03T02:26:02.004Z,99.90
2018-09-03T02:28:29.598Z,99.90
2018-09-03T02:30:57.174Z,99.90
2018-09-03T02:33:24.790Z,99.90
2018-09-03T02:35:52.349Z,99.90
2018-09-03T02:38:19.921Z,99.90
2018-09-03T02:40:47.464Z,99.90
2018-09-03T02:43:15.038Z,99.90
2018-09-03T02:45:42.682Z,99.90
2018-09-03T02:48:10.221Z,99.90
2018-09-03T02:50:37.808Z,99.90
2018-09-03T02:53:05.454Z,99.90
2018-09-03T02:55:33.067Z,99.90
2018-09-03T02:58:00.617Z,99.90
2018-09-03T03:00:28.160Z,99.90
2018-09-03T03:02:57.137Z,99.90
2018-09-03T03:05:24.861Z,99.90
2018-09-03T03:07:52.433Z,99.90
2018-09-03T03:10:19.970Z,99.90
2018-09-03T03:12:47.505Z,99.90
2018-09-03T03:15:15.139Z,99.90
2018-09-03T03:17:42.693Z,99.90
2018-09-03T03:20:10.264Z,99.90
2018-09-03T03:22:37.804Z,99.90
2018-09-03T03:25:05.573Z,99.90
2018-09-03T03:27:33.153Z,99.90
2018-09-03T03:30:00.718Z,99.90
2018-09-03T03:32:28.271Z,99.90
2018-09-03T03:34:55.779Z,99.90
2018-09-03T03:37:23.301Z,99.90
2018-09-03T03:39:50.824Z,99.90
2018-09-03T03:42:18.452Z,99.90
2018-09-03T03:44:45.989Z,99.90
2018-09-03T03:47:13.573Z,99.90
2018-09-03T03:49:41.162Z,99.90
2018-09-03T03:52:08.681Z,99.90
2018-09-03T03:54:36.210Z,99.90
2018-09-03T03:57:03.728Z,99.90
2018-09-03T03:59:31.296Z,99.90
2018-09-03T04:01:58.873Z,99.90
2018-09-03T04:04:26.436Z,99.90
2018-09-03T04:06:53.996Z,99.90
2018-09-03T04:09:21.538Z,99.90
2018-09-03T04:11:49.046Z,99.90
2018-09-03T04:14:16.603Z,99.90
2018-09-03T04:16:44.137Z,99.90
2018-09-03T04:19:11.700Z,99.90
2018-09-03T04:21:39.266Z,99.90
2018-09-03T04:24:06.864Z,99.90
2018-09-03T04:26:34.422Z,99.90
2018-09-03T04:29:01.998Z,99.90
2018-09-03T04:31:29.542Z,99.90
2018-09-03T04:33:57.050Z,99.90
2018-09-03T04:36:24.648Z,99.90
2018-09-03T04:38:52.239Z,99.90
2018-09-03T04:41:19.822Z,99.90
2018-09-03T04:43:47.333Z,99.90
2018-09-03T04:46:14.914Z,99.90
2018-09-03T04:48:42.456Z,99.90
2018-09-03T04:51:10.007Z,99.90
2018-09-03T04:53:37.534Z,99.90
2018-09-03T04:56:05.150Z,99.90
2018-09-03T04:58:32.705Z,99.90
2018-09-03T05:01:00.281Z,99.90
2018-09-03T05:03:27.827Z,99.90
2018-09-03T05:05:55.424Z,99.90
2018-09-03T05:08:22.952Z,99.90
2018-09-03T05:10:50.512Z,99.90
2018-09-03T05:13:18.027Z,99.90
2018-09-03T05:15:45.589Z,99.90
2018-09-03T05:18:13.178Z,99.90
2018-09-03T05:20:40.906Z,99.90
2018-09-03T05:23:08.510Z,99.90
2018-09-03T05:25:36.024Z,99.90
2018-09-03T05:28:03.626Z,99.90
2018-09-03T05:30:31.151Z,99.90
2018-09-03T05:32:58.873Z,99.90
2018-09-03T05:35:26.399Z,99.90
2018-09-03T05:37:53.928Z,99.90
2018-09-03T05:40:21.465Z,99.90
2018-09-03T05:42:49.019Z,99.90
2018-09-03T05:45:16.581Z,99.90
2018-09-03T05:47:44.138Z,99.90
2018-09-03T05:50:11.772Z,99.90
2018-09-03T05:52:39.277Z,99.90
2018-09-03T05:55:06.949Z,99.90
2018-09-03T05:57:34.510Z,99.90
2018-09-03T06:00:02.105Z,99.90
2018-09-03T06:02:29.639Z,99.90
2018-09-03T06:04:57.185Z,99.90
2018-09-03T06:07:24.755Z,99.90
2018-09-03T06:09:52.495Z,99.90
2018-09-03T06:12:20.130Z,99.90
2018-09-03T06:14:47.651Z,99.90
2018-09-03T06:17:15.222Z,99.90
2018-09-03T06:19:42.731Z,99.90
2018-09-03T06:22:10.273Z,99.90
2018-09-03T06:24:37.827Z,99.90
2018-09-03T06:27:05.367Z,99.90
2018-09-03T06:29:32.923Z,99.90
2018-09-03T06:32:00.478Z,99.90
2018-09-03T06:34:28.034Z,99.90
2018-09-03T06:36:55.655Z,99.90
2018-09-03T06:39:23.227Z,99.90
2018-09-03T06:41:50.757Z,99.90
2018-09-03T06:44:18.260Z,99.90
2018-09-03T06:46:45.838Z,99.90
2018-09-03T06:49:13.398Z,99.90
2018-09-03T06:51:40.990Z,99.90
2018-09-03T06:54:08.618Z,99.90
2018-09-03T06:56:36.145Z,99.90
2018-09-03T06:59:03.697Z,99.90
2018-09-03T07:01:31.233Z,99.90
2018-09-03T07:03:58.732Z,99.90
2018-09-03T07:06:26.284Z,99.90
2018-09-03T07:08:53.809Z,99.90
2018-09-03T07:11:21.348Z,99.90
2018-09-03T07:13:48.906Z,99.90
2018-09-03T07:16:16.509Z,99.90
2018-09-03T07:18:44.147Z,99.90
2018-09-03T07:21:11.692Z,99.90
2018-09-03T07:23:39.389Z,99.90
2018-09-03T07:26:06.969Z,99.90
2018-09-03T07:28:34.545Z,99.90
2018-09-03T07:31:02.099Z,99.90
2018-09-03T07:33:29.678Z,99.90
2018-09-03T07:35:57.198Z,99.90
2018-09-03T07:38:25.276Z,99.90
2018-09-03T07:40:52.925Z,99.90
2018-09-03T07:43:20.547Z,99.90
2018-09-03T07:45:48.172Z,99.90
2018-09-03T07:48:15.754Z,99.90
2018-09-03T07:50:43.284Z,99.90
2018-09-03T07:53:10.869Z,99.90
2018-09-03T07:55:38.383Z,99.90
2018-09-03T07:58:06.301Z,99.90
2018-09-03T08:00:33.885Z,99.90
2018-09-03T08:03:01.409Z,99.90
2018-09-03T08:05:28.967Z,99.80
2018-09-03T08:07:56.521Z,99.80
2018-09-03T08:10:24.112Z,99.40
2018-09-03T08:12:51.720Z,99.20
2018-09-03T08:15:19.253Z,98.70
2018-09-03T08:17:46.996Z,98.50
2018-09-03T08:20:14.579Z,98.40
2018-09-03T08:22:42.181Z,98.40
2018-09-03T08:25:09.773Z,98.50
2018-09-03T08:27:37.345Z,98.30
2018-09-03T08:30:05.795Z,98.10
2018-09-03T08:32:33.381Z,97.90
2018-09-03T08:35:00.984Z,98.00
2018-09-03T08:37:28.552Z,98.00
2018-09-03T08:39:56.188Z,97.70
2018-09-03T08:42:23.887Z,97.20
2018-09-03T08:44:51.511Z,96.70
2018-09-03T08:47:19.062Z,96.40
2018-09-03T08:49:46.675Z,96.00
2018-09-03T08:52:14.239Z,96.00
2018-09-03T08:54:41.907Z,95.90
2018-09-03T08:57:09.470Z,95.50
2018-09-03T08:59:37.019Z,95.20
2018-09-03T09:02:04.554Z,95.10
2018-09-03T09:04:32.121Z,95.10
2018-09-03T09:06:59.785Z,95.10
2018-09-03T09:09:27.349Z,94.70
2018-09-03T09:11:54.901Z,94.90
2018-09-03T09:14:22.477Z,94.80
2018-09-03T09:16:50.141Z,94.70
2018-09-03T09:19:17.687Z,94.80
2018-09-03T09:21:45.281Z,94.70
2018-09-03T09:24:12.826Z,94.20
2018-09-03T09:26:40.349Z,94.20
2018-09-03T09:29:07.940Z,94.50
2018-09-03T09:31:35.493Z,94.30
2018-09-03T09:34:03.103Z,94.10
2018-09-03T09:36:30.689Z,94.00
2018-09-03T09:38:58.259Z,93.80
2018-09-03T09:41:25.912Z,93.70
2018-09-03T09:43:53.487Z,93.30
2018-09-03T09:46:23.554Z,93.10
2018-09-03T09:48:51.092Z,92.90
2018-09-03T09:51:18.759Z,92.80
2018-09-03T09:53:46.375Z,92.70
2018-09-03T09:56:13.972Z,92.80
2018-09-03T09:58:41.575Z,93.00
2018-09-03T10:01:14.738Z,93.10
2018-09-03T10:03:42.276Z,93.00
2018-09-03T10:06:09.811Z,93.10
2018-09-03T10:08:37.385Z,93.40
2018-09-03T10:11:05.040Z,92.80
2018-09-03T10:13:32.653Z,92.70
2018-09-03T10:16:00.196Z,92.90
2018-09-03T10:18:27.724Z,92.40
2018-09-03T10:20:55.276Z,92.00
2018-09-03T10:23:22.879Z,91.60
2018-09-03T10:25:50.435Z,91.70
2018-09-03T10:28:17.977Z,91.70
2018-09-03T10:30:45.561Z,92.00
2018-09-03T10:33:13.120Z,92.10
2018-09-03T10:35:40.659Z,92.90
2018-09-03T10:38:08.245Z,92.90
2018-09-03T10:40:35.786Z,93.00
2018-09-03T10:43:03.349Z,93.00
2018-09-03T10:45:30.910Z,92.60
2018-09-03T10:47:58.458Z,92.50
2018-09-03T10:50:26.033Z,92.20
2018-09-03T10:52:53.571Z,92.40
2018-09-03T10:55:21.138Z,92.30
2018-09-03T10:57:48.643Z,92.40
2018-09-03T11:00:16.205Z,92.00
2018-09-03T11:02:43.793Z,92.00
2018-09-03T11:05:11.416Z,91.70
2018-09-03T11:07:39.007Z,91.10
2018-09-03T11:10:06.595Z,90.70
2018-09-03T11:12:34.583Z,90.90
2018-09-03T11:15:02.131Z,90.90
2018-09-03T11:17:29.661Z,90.80
2018-09-03T11:19:59.603Z,90.70
2018-09-03T11:22:27.291Z,90.80
2018-09-03T11:24:55.042Z,91.00
2018-09-03T11:27:22.619Z,91.20
2018-09-03T11:29:50.181Z,91.20
2018-09-03T11:32:17.744Z,91.30
2018-09-03T11:34:45.681Z,91.50
2018-09-03T11:37:13.247Z,91.60
2018-09-03T11:39:40.807Z,90.80
2018-09-03T11:42:08.353Z,90.60
2018-09-03T11:44:35.918Z,90.80
2018-09-03T11:47:03.617Z,90.90
2018-09-03T11:49:31.117Z,91.00
2018-09-03T11:51:58.676Z,91.00
2018-09-03T11:54:26.247Z,91.00
2018-09-03T11:56:53.802Z,91.00
2018-09-03T11:59:21.391Z,91.30
2018-09-03T12:01:49.003Z,91.60
2018-09-03T12:04:16.622Z,92.00
2018-09-03T12:06:44.300Z,91.50
2018-09-03T12:09:11.769Z,91.70
2018-09-03T12:11:39.356Z,91.80
2018-09-03T12:14:13.440Z,91.50
2018-09-03T12:16:41.023Z,91.50
2018-09-03T12:19:08.554Z,91.20
2018-09-03T12:21:36.072Z,91.20
2018-09-03T12:24:03.672Z,91.40
2018-09-03T12:26:31.228Z,91.00
2018-09-03T12:28:58.798Z,91.00
2018-09-03T12:31:26.432Z,90.90
2018-09-03T12:33:53.908Z,91.00
2018-09-03T12:36:21.490Z,90.80
2018-09-03T12:38:49.014Z,91.10
2018-09-03T12:41:16.618Z,91.30
2018-09-03T12:43:44.244Z,91.50
2018-09-03T12:46:11.844Z,91.40
2018-09-03T12:48:39.601Z,91.30
2018-09-03T12:51:07.219Z,91.70
2018-09-03T12:53:34.764Z,91.20
2018-09-03T12:56:02.893Z,90.90
2018-09-03T12:58:30.522Z,91.00
2018-09-03T13:00:58.092Z,91.20
2018-09-03T13:03:25.628Z,91.10
2018-09-03T13:05:53.193Z,91.00
2018-09-03T13:08:20.744Z,90.70
2018-09-03T13:10:48.301Z,90.30
2018-09-03T13:13:15.865Z,88.50
2018-09-03T13:15:43.411Z,87.50
2018-09-03T13:18:11.033Z,86.30
2018-09-03T13:20:38.609Z,86.00
2018-09-03T13:23:06.133Z,85.90
2018-09-03T13:25:33.647Z,85.90
2018-09-03T13:28:01.259Z,84.90
2018-09-03T13:30:28.803Z,84.50
2018-09-03T13:32:56.423Z,86.10
2018-09-03T13:35:24.279Z,86.20
2018-09-03T13:37:51.854Z,85.90
2018-09-03T13:40:19.416Z,85.00
2018-09-03T13:42:46.956Z,84.90
2018-09-03T13:45:14.565Z,85.00
2018-09-03T13:47:42.131Z,84.70
2018-09-03T13:50:09.800Z,84.60
2018-09-03T13:52:37.362Z,85.00
2018-09-03T13:55:05.280Z,85.20
2018-09-03T13:57:32.788Z,85.70
2018-09-03T14:00:00.356Z,85.70
2018-09-03T14:02:27.923Z,85.50
2018-09-03T14:04:55.593Z,85.40
2018-09-03T14:07:23.188Z,84.80
2018-09-03T14:09:50.817Z,83.80
2018-09-03T14:12:18.425Z,83.10
2018-09-03T14:14:45.980Z,82.20
2018-09-03T14:17:13.610Z,82.50
2018-09-03T14:19:41.188Z,82.90
2018-09-03T14:22:08.774Z,83.00
2018-09-03T14:24:36.321Z,84.90
2018-09-03T14:27:03.879Z,85.20
2018-09-03T14:29:31.406Z,85.40
2018-09-03T14:31:58.960Z,86.30
2018-09-03T14:34:26.490Z,86.70
2018-09-03T14:36:54.159Z,87.30
2018-09-03T14:39:21.654Z,87.20
2018-09-03T14:41:49.347Z,87.60
2018-09-03T14:44:16.947Z,87.60
2018-09-03T14:46:44.554Z,88.50
2018-09-03T14:49:12.111Z,88.50
2018-09-03T14:51:39.662Z,88.30
2018-09-03T14:54:07.182Z,88.40
2018-09-03T14:56:34.808Z,88.60
2018-09-03T14:59:02.534Z,89.00
2018-09-03T15:01:30.234Z,89.30
2018-09-03T15:03:57.854Z,89.40
2018-09-03T15:06:25.428Z,89.20
2018-09-03T15:08:52.962Z,89.00
2018-09-03T15:11:20.577Z,89.00
2018-09-03T15:13:52.841Z,88.80
2018-09-03T15:16:20.409Z,87.40
2018-09-03T15:18:48.011Z,87.30
2018-09-03T15:21:15.573Z,86.60
2018-09-03T15:23:43.125Z,86.60
2018-09-03T15:26:10.832Z,87.50
2018-09-03T15:28:38.347Z,86.80
2018-09-03T15:31:05.931Z,86.40
2018-09-03T15:33:33.553Z,86.40
2018-09-03T15:36:01.231Z,84.70
2018-09-03T15:38:28.739Z,83.40
2018-09-03T15:40:56.311Z,83.80
2018-09-03T15:43:23.961Z,85.00
2018-09-03T15:45:51.493Z,85.90
2018-09-03T15:48:19.183Z,85.00
2018-09-03T15:50:46.891Z,84.10
2018-09-03T15:53:14.455Z,83.80
2018-09-03T15:55:42.023Z,83.20
2018-09-03T15:58:09.633Z,83.60
2018-09-03T16:00:37.238Z,84.00
2018-09-03T16:03:04.884Z,83.30
2018-09-03T16:05:32.528Z,83.50
2018-09-03T16:08:00.166Z,83.80
2018-09-03T16:10:27.753Z,84.50
2018-09-03T16:12:55.295Z,84.40
2018-09-03T16:15:22.886Z,84.10
2018-09-03T16:17:50.539Z,84.70
2018-09-03T16:20:18.125Z,85.60
2018-09-03T16:22:45.727Z,86.10
2018-09-03T16:25:13.353Z,86.90
2018-09-03T16:27:40.937Z,87.00
2018-09-03T16:30:08.523Z,87.40
2018-09-03T16:32:36.085Z,87.30
2018-09-03T16:35:03.692Z,87.60
2018-09-03T16:37:31.243Z,87.50
2018-09-03T16:39:58.782Z,87.40
2018-09-03T16:42:26.316Z,87.30
2018-09-03T16:44:53.871Z,88.00
2018-09-03T16:47:21.489Z,88.20
2018-09-03T16:49:49.038Z,88.50
2018-09-03T16:52:16.591Z,88.90
2018-09-03T16:54:44.171Z,89.30
2018-09-03T16:57:11.799Z,89.70
2018-09-03T16:59:39.519Z,89.70
2018-09-03T17:02:07.166Z,90.10
2018-09-03T17:04:34.812Z,90.30
2018-09-03T17:07:02.500Z,90.60
2018-09-03T17:09:30.093Z,90.80
2018-09-03T17:11:57.694Z,91.10
2018-09-03T17:14:25.253Z,91.50
2018-09-03T17:16:52.811Z,91.70
2018-09-03T17:19:20.389Z,91.90
2018-09-03T17:21:48.018Z,92.00
2018-09-03T17:24:15.607Z,92.10
2018-09-03T17:26:43.910Z,92.10
2018-09-03T17:29:11.435Z,92.10
2018-09-03T17:31:39.272Z,92.20
2018-09-03T17:34:06.958Z,92.30
2018-09-03T17:36:34.601Z,92.60
2018-09-03T17:39:02.272Z,92.60
2018-09-03T17:41:29.832Z,93.10
2018-09-03T17:43:57.435Z,93.20
2018-09-03T17:46:27.133Z,93.50
2018-09-03T17:48:54.817Z,93.50
2018-09-03T17:51:22.459Z,93.30
2018-09-03T17:53:50.083Z,93.20
2018-09-03T17:56:17.677Z,93.20
2018-09-03T17:58:45.361Z,93.40
2018-09-03T18:01:12.955Z,93.70
2018-09-03T18:03:40.611Z,94.00
2018-09-03T18:06:08.337Z,94.50
2018-09-03T18:08:35.999Z,95.10
2018-09-03T18:11:03.747Z,95.60
2018-09-03T18:13:31.409Z,95.70
2018-09-03T18:15:59.095Z,95.90
2018-09-03T18:18:27.121Z,95.90
2018-09-03T18:20:54.818Z,96.00
2018-09-03T18:23:22.543Z,96.10
2018-09-03T18:25:50.192Z,96.10
2018-09-03T18:28:17.925Z,96.10
2018-09-03T18:30:45.713Z,96.30
2018-09-03T18:33:13.345Z,96.40
2018-09-03T18:35:41.947Z,96.60
2018-09-03T18:38:09.904Z,96.80
2018-09-03T18:40:37.705Z,96.70
2018-09-03T18:43:05.559Z,97.00
2018-09-03T18:45:33.246Z,97.20
2018-09-03T18:48:00.918Z,97.40
2018-09-03T18:50:28.552Z,97.70
2018-09-03T18:52:56.610Z,98.00
2018-09-03T18:55:24.318Z,98.20
2018-09-03T18:57:52.252Z,98.50
2018-09-03T19:00:20.012Z,98.70
2018-09-03T19:02:47.686Z,99.00
2018-09-03T19:05:16.557Z,99.10
2018-09-03T19:07:44.246Z,99.20
2018-09-03T19:10:11.966Z,99.20
2018-09-03T19:12:39.670Z,99.00
2018-09-03T19:15:07.753Z,99.00
2018-09-03T19:17:35.453Z,99.10
2018-09-03T19:20:03.242Z,99.10
2018-09-03T19:22:31.112Z,99.10
2018-09-03T19:24:59.772Z,99.20
2018-09-03T19:27:27.914Z,99.30
2018-09-03T19:29:55.940Z,99.40
2018-09-03T19:32:23.681Z,99.40
2018-09-03T19:34:51.461Z,99.60
2018-09-03T19:37:19.193Z,99.80
2018-09-03T19:39:46.887Z,99.90
2018-09-03T19:42:14.683Z,99.90
2018-09-03T19:44:42.413Z,99.90
2018-09-03T19:47:10.366Z,99.90
2018-09-03T19:49:38.027Z,99.90
2018-09-03T19:52:06.456Z,99.90
2018-09-03T19:54:35.097Z,99.90
2018-09-03T19:57:03.133Z,99.90
2018-09-03T19:59:30.925Z,99.90
2018-09-03T20:01:58.708Z,99.90
2018-09-03T20:04:26.373Z,99.90
2018-09-03T20:06:54.735Z,99.90
2018-09-03T20:09:22.488Z,99.90
2018-09-03T20:11:50.280Z,99.90
2018-09-03T20:14:18.079Z,99.90
2018-09-03T20:16:45.762Z,99.90
2018-09-03T20:19:13.410Z,99.90
2018-09-03T20:21:41.116Z,99.90
2018-09-03T20:24:08.845Z,99.90
2018-09-03T20:26:36.513Z,99.90
2018-09-03T20:29:04.242Z,99.90
2018-09-03T20:31:32.029Z,99.90
2018-09-03T20:33:59.703Z,99.90
2018-09-03T20:36:27.395Z,99.90
2018-09-03T20:38:55.078Z,99.90
2018-09-03T20:41:23.096Z,99.90
2018-09-03T20:43:51.029Z,99.90
2018-09-03T20:46:19.119Z,99.90
2018-09-03T20:48:46.862Z,99.90
2018-09-03T20:51:14.532Z,99.90
2018-09-03T20:53:42.211Z,99.90
2018-09-03T20:56:09.904Z,99.90
2018-09-03T20:58:37.610Z,99.90
2018-09-03T21:01:05.477Z,99.90
2018-09-03T21:03:33.283Z,99.90
2018-09-03T21:06:00.985Z,99.90
2018-09-03T21:08:28.785Z,99.90
2018-09-03T21:10:56.497Z,99.90
2018-09-03T21:13:24.170Z,99.90
2018-09-03T21:15:51.833Z,99.90
2018-09-03T21:18:19.466Z,99.90
2018-09-03T21:20:47.075Z,99.90
2018-09-03T21:23:14.671Z,99.90
2018-09-03T21:25:42.296Z,99.90
2018-09-03T21:28:09.851Z,99.90
2018-09-03T21:30:37.529Z,99.90
2018-09-03T21:33:05.122Z,99.90
2018-09-03T21:35:32.799Z,99.90
2018-09-03T21:38:00.389Z,99.90
2018-09-03T21:40:27.939Z,99.90
2018-09-03T21:42:55.452Z,99.90
2018-09-03T21:45:23.034Z,99.90
2018-09-03T21:47:50.653Z,99.90
2018-09-03T21:50:18.270Z,99.90
2018-09-03T21:52:45.808Z,99.90
2018-09-03T21:55:13.443Z,99.90
2018-09-03T21:57:41.013Z,99.90
2018-09-03T22:00:08.872Z,99.90
2018-09-03T22:02:36.468Z,99.90
2018-09-03T22:05:04.578Z,99.90
2018-09-03T22:07:32.129Z,99.90
2018-09-03T22:10:00.541Z,99.90
2018-09-03T22:12:28.128Z,99.90
2018-09-03T22:14:55.658Z,99.90
2018-09-03T22:17:23.237Z,99.90
2018-09-03T22:19:50.845Z,99.90
2018-09-03T22:22:18.423Z,99.90
2018-09-03T22:24:45.953Z,99.90
2018-09-03T22:27:13.513Z,99.90
2018-09-03T22:29:41.038Z,99.90
2018-09-03T22:32:08.611Z,99.90
2018-09-03T22:34:36.253Z,99.90
2018-09-03T22:37:03.916Z,99.90
2018-09-03T22:39:31.482Z,99.90
2018-09-03T22:41:59.039Z,99.90
2018-09-03T22:44:26.580Z,99.90
2018-09-03T22:46:54.195Z,99.90
2018-09-03T22:49:21.749Z,99.90
2018-09-03T22:51:49.279Z,99.90
2018-09-03T22:54:16.801Z,99.90
2018-09-03T22:56:44.431Z,99.90
2018-09-03T22:59:11.983Z,99.90
2018-09-03T23:01:39.511Z,99.90
2018-09-03T23:04:07.063Z,99.90
2018-09-03T23:06:34.639Z,99.90
2018-09-03T23:09:02.393Z,99.90
2018-09-03T23:11:29.953Z,99.90
2018-09-03T23:13:57.533Z,99.90
2018-09-03T23:16:25.111Z,99.90
2018-09-03T23:18:52.657Z,99.90
2018-09-03T23:21:20.336Z,99.90
2018-09-03T23:23:47.909Z,99.90
2018-09-03T23:26:15.429Z,99.90
2018-09-03T23:28:43.054Z,99.90
2018-09-03T23:31:10.619Z,99.90
2018-09-03T23:33:38.137Z,99.90
2018-09-03T23:36:05.665Z,99.90
2018-09-03T23:38:33.285Z,99.90
2018-09-03T23:41:00.851Z,99.90
2018-09-03T23:43:28.420Z,99.90
2018-09-03T23:45:55.956Z,99.90
2018-09-03T23:48:23.515Z,99.90
2018-09-03T23:50:51.129Z,99.90
2018-09-03T23:53:18.781Z,99.90
2018-09-03T23:55:46.418Z,99.90
2018-09-03T23:58:14.010Z,99.90
